x

Juan Santamaria (78762) Weather Station

6:00pm - Tue 3rd Mar 2015 All times are CST. -6 hours from GMT.

  • Wind
    16mph, 28mph gusts
  • 空気 Temp 70°f
  • Sea Pressure 1013.5mb
  • Juan Santamaria
  • Juan Santamaria

More Historic Weather Station data

Upgrade to MSW Pro to gain access to the past 30 days of data for over 8000 Wavebouys and Weather Stations around the globe.

Join Pro

Comparision Forecast

View Surf forecast
   
Tue 03/03 6:00pm 16 28 mph 1013.5mb 70f
5:00pm 13 24 mph 1012.9mb 75f
4:00pm 17 29 mph 1013.2mb 79f
3:00pm 18 30 mph 1012.9mb 81f
2:00pm 22 33 mph 1013.2mb 84f
1:00pm 20 35 mph 1014.2mb 84f
12:00pm 21 35 mph 1015.2mb 82f
11:00am 22 37 mph 1016.3mb 81f
10:00am  -  mph 1016.9mb 79f
9:00am 21 36 mph 1016.9mb 75f
8:00am 18 30 mph 1016.6mb 73f
7:00am 16 28 mph 1015.6mb 68f
6:00am 14 25 mph 1015.6mb 66f
5:00am 16 28 mph 1014.9mb 66f
4:00am 16 29 mph 1013.9mb 64f
3:00am 18 30 mph 1014.2mb 66f
2:00am 16 28 mph 1014.9mb 64f
1:00am 14 25 mph 1015.6mb 68f
12:25am 17 29 mph 1015.6mb 68f
12:00am 15
mph
1015.9mb 68f
Mon 03/02 11:00pm 17 29 mph 1016.9mb 68f
10:00pm 18 31 mph 1016.9mb 68f
9:00pm 16 28 mph 1016.9mb 66f
8:00pm 21 32 mph 1016.3mb 68f
7:00pm 16 28 mph 1015.2mb 70f
6:00pm 18 30 mph 1014.6mb 72f
5:00pm 21 36 mph 1013.9mb 75f
4:00pm 18 30 mph 1013.5mb 79f
3:00pm 23 35 mph 1013.5mb 79f
2:00pm 20 35 mph 1014.9mb 81f
1:00pm 24 40 mph 1015.2mb 79f
12:00pm 18 30 mph 1016.3mb 81f
11:00am 22 36 mph 1016.9mb 81f
10:00am 22 33 mph 1018mb 79f
9:00am 22 33 mph 1017.6mb 77f
8:00am 18 30 mph 1017.6mb 75f
7:00am 16
mph
1016.9mb 70f
5:00am 18 30 mph 1015.6mb 68f
4:00am 20 31 mph 1015.2mb 68f
3:00am 20 31 mph 1015.6mb 68f
2:00am 17 30 mph 1015.9mb 68f
1:00am 18 30 mph 1016.6mb 68f
12:00am 18 30 mph 1016.9mb 68f
Sun 03/01 11:00pm 20 35 mph 1017.3mb 68f
10:00pm 14 25 mph 1018.3mb 68f
9:00pm 13
mph
1018mb 72f
8:00pm 13 24 mph 1017.3mb 73f
7:00pm 18
mph
1016.3mb 73f
6:00pm 13
mph
1016.3mb 73f
5:00pm 15 27 mph 1015.9mb 77f
4:00pm 17
mph
1015.6mb 77f
3:00pm 18 32 mph 1015.2mb 79f
2:00pm 20 33 mph 1015.9mb 79f
1:00pm 18 30 mph 1016.6mb 79f
12:00pm 22 35 mph 1017.3mb 82f
11:00am 18 32 mph 1017.6mb 79f
10:00am 17 30 mph 1018mb 79f
9:00am 15 27 mph 1018.6mb 75f
8:00am 17 30 mph 1018.3mb 73f
7:45am 16 28 mph 1018mb 75f
7:00am 16
mph
1017.3mb 73f
6:00am 15 27 mph 1016.9mb 70f
5:00am 14 25 mph 1016.3mb 70f
4:00am 16 28 mph 1015.9mb 70f
3:00am 16 28 mph 1015.9mb 70f
2:00am 16 28 mph 1015.9mb 70f
1:00am 15
mph
1016.3mb 72f
12:00am 15 27 mph 1016.6mb 70f
Sat 02/28 11:00pm 18 30 mph 1016.9mb 70f
10:00pm 15
mph
1017.6mb 70f
9:00pm 15 29 mph 1017.6mb 72f
8:00pm 15 27 mph 1017.3mb 72f
6:00pm 14
mph
1016.6mb 72f
5:00pm 16 28 mph 1016.3mb 75f
4:00pm 15 28 mph 1015.9mb 79f
3:00pm 16 28 mph 1015.9mb 79f
2:00pm 15 27 mph 1016.3mb 81f
1:00pm 16 28 mph 1016.9mb 81f
12:00pm 16 28 mph 1017.3mb 81f
11:00am 17 30 mph 1016.3mb 79f
10:00am 16 30 mph 1018.6mb 79f
9:00am 21 35 mph 1018.3mb 77f
8:00am 16 31 mph 1018mb 72f
7:00am 12
mph
1017.3mb 72f
6:00am 12
mph
1016.6mb 70f
5:00am 14 27 mph 1015.9mb 70f
4:00am 14 25 mph 1015.2mb 70f
3:00am 12 23 mph 1014.9mb 70f
2:00am 12
mph
1015.2mb 70f
1:00am 10
mph
1015.6mb 70f